Time;durP1;ratioP1;P1;durP2;ratioP2;P2;SDS_P1;SDS_P2;PMS_P1;PMS_P2;Temp;Humidity;BMP_temperature;BMP_pressure;BME280_temperature;BME280_humidity;BME280_pressure;Samples;Min_cycle;Max_cycle;Signal;HPM_P1;HPM_P2
2022/03/05 00:00:31;;;;;;;40.20;19.80;;;;;;;1.79;66.31;101977.84;5028915;28;20037;-70
2022/03/05 00:02:58;;;;;;;44.43;19.47;;;;;;;1.78;66.46;101984.00;5027408;28;20025;-70
2022/03/05 00:05:23;;;;;;;38.63;19.97;;;;;;;1.68;66.79;101978.41;5030813;28;20037;-70
2022/03/05 00:07:48;;;;;;;40.93;20.00;;;;;;;1.68;66.83;101982.81;5031449;28;20084;-69
2022/03/05 00:10:14;;;;;;;41.20;20.03;;;;;;;1.52;66.92;101960.13;5030823;28;20099;-70
2022/03/05 00:12:39;;;;;;;42.57;19.97;;;;;;;1.52;67.30;101974.97;5031201;28;20029;-70
2022/03/05 00:15:05;;;;;;;42.97;20.60;;;;;;;1.52;67.42;101988.91;5030004;28;20053;-70
2022/03/05 00:17:31;;;;;;;43.00;21.30;;;;;;;1.51;67.70;101989.84;5029650;28;20067;-70
2022/03/05 00:19:57;;;;;;;42.33;20.47;;;;;;;1.51;67.79;101986.38;5029272;28;20120;-69
2022/03/05 00:22:23;;;;;;;40.40;20.57;;;;;;;1.45;67.96;101995.41;5029974;28;20056;-69
2022/03/05 00:24:48;;;;;;;46.23;21.33;;;;;;;1.41;68.29;101998.25;5030074;28;20068;-69
2022/03/05 00:27:14;;;;;;;46.93;21.03;;;;;;;1.33;68.46;101982.97;5029714;28;20033;-70
2022/03/05 00:29:40;;;;;;;45.03;21.23;;;;;;;1.32;68.64;101991.75;5029024;28;20029;-70
2022/03/05 00:32:06;;;;;;;45.00;21.57;;;;;;;1.33;68.71;101990.81;5029184;28;20390;-70
2022/03/05 00:34:31;;;;;;;46.70;21.03;;;;;;;1.28;68.81;101986.78;5030391;28;20497;-70
2022/03/05 00:36:56;;;;;;;50.30;22.53;;;;;;;1.27;69.10;101979.84;5029538;28;20025;-69
2022/03/05 00:39:21;;;;;;;45.90;21.33;;;;;;;1.21;69.50;101987.09;5030104;28;20037;-69
2022/03/05 00:41:47;;;;;;;44.93;21.17;;;;;;;1.14;69.46;101975.25;5030618;28;20473;-69
2022/03/05 00:44:12;;;;;;;47.37;21.83;;;;;;;1.13;69.72;101981.41;5029807;28;20486;-70
2022/03/05 00:46:37;;;;;;;45.40;21.20;;;;;;;1.04;70.02;101978.47;5029311;28;20029;-70
2022/03/05 00:49:03;;;;;;;48.53;22.00;;;;;;;0.99;70.31;101991.78;5028353;28;20026;-70
2022/03/05 00:51:28;;;;;;;48.03;22.77;;;;;;;0.98;70.30;101984.88;5027489;28;20079;-68
2022/03/05 00:53:53;;;;;;;47.23;22.63;;;;;;;0.92;70.57;101983.41;5028784;28;20033;-70
2022/03/05 00:56:19;;;;;;;50.10;22.50;;;;;;;0.96;70.67;101983.25;5029345;28;20091;-70
2022/03/05 00:58:44;;;;;;;46.83;22.73;;;;;;;0.96;70.79;101991.09;5028687;28;20505;-70
2022/03/05 01:01:09;;;;;;;50.07;23.30;;;;;;;0.91;70.84;101983.50;5029082;28;20049;-69
2022/03/05 01:03:35;;;;;;;45.67;22.53;;;;;;;0.91;70.87;101981.72;5029242;28;20079;-69
2022/03/05 01:06:00;;;;;;;44.73;22.23;;;;;;;0.87;70.99;101976.75;5028819;28;20075;-69
2022/03/05 01:08:26;;;;;;;47.57;23.10;;;;;;;0.87;71.09;101984.59;5029874;28;20048;-69
2022/03/05 01:10:51;;;;;;;47.97;22.63;;;;;;;0.76;71.05;101974.66;5028528;28;20079;-70
2022/03/05 01:13:17;;;;;;;51.33;23.40;;;;;;;0.82;71.04;101982.19;5028701;28;20083;-70
2022/03/05 01:15:42;;;;;;;50.80;22.80;;;;;;;0.80;70.91;101980.59;5028736;28;20081;-70
2022/03/05 01:18:07;;;;;;;48.70;23.20;;;;;;;0.71;71.39;101976.69;5028464;28;20088;-70
2022/03/05 01:20:32;;;;;;;53.57;24.20;;;;;;;0.68;71.67;101982.06;5028564;28;20513;-70
2022/03/05 01:22:58;;;;;;;50.83;23.37;;;;;;;0.68;71.90;101978.63;5029240;28;20036;-69
2022/03/05 01:25:23;;;;;;;46.90;23.20;;;;;;;0.66;72.07;101978.69;5028815;28;20036;-69
2022/03/05 01:27:48;;;;;;;51.13;23.67;;;;;;;0.67;72.12;101979.53;5028142;28;20095;-70
2022/03/05 01:30:14;;;;;;;52.03;23.17;;;;;;;0.63;72.27;101968.41;5029102;28;20393;-70
2022/03/05 01:32:39;;;;;;;46.93;23.17;;;;;;;0.70;71.98;101974.16;5033671;28;20104;-69
2022/03/05 01:35:05;;;;;;;53.80;22.93;;;;;;;0.68;72.04;101970.78;5029833;28;20025;-70
2022/03/05 01:37:30;;;;;;;50.90;22.97;;;;;;;0.65;71.90;101976.16;5023910;28;20074;-69
2022/03/05 01:39:56;;;;;;;48.70;23.00;;;;;;;0.66;72.01;101975.22;5028860;28;20481;-70
2022/03/05 01:42:23;;;;;;;52.20;23.73;;;;;;;0.63;72.05;101978.84;5029451;28;20439;-70
2022/03/05 01:44:48;;;;;;;52.17;23.23;;;;;;;0.55;72.19;101965.31;5029576;28;20021;-70
2022/03/05 01:47:13;;;;;;;47.73;23.10;;;;;;;0.59;72.11;101970.31;5029872;28;20091;-70
2022/03/05 01:49:39;;;;;;;50.90;23.40;;;;;;;0.61;72.07;101975.47;5028839;28;20025;-70
2022/03/05 01:52:04;;;;;;;47.33;22.60;;;;;;;0.55;72.12;101976.59;5029785;28;20040;-70
2022/03/05 01:54:30;;;;;;;47.23;23.80;;;;;;;0.49;72.32;101983.91;5032912;28;20473;-70
2022/03/05 01:56:57;;;;;;;51.77;23.33;;;;;;;0.39;72.37;101977.47;5028978;28;20025;-70
2022/03/05 01:59:22;;;;;;;47.00;22.93;;;;;;;0.39;72.29;101983.56;5029862;28;20136;-69
2022/03/05 02:01:48;;;;;;;48.83;23.67;;;;;;;0.35;72.67;101983.78;5028232;28;20100;-69
2022/03/05 02:04:13;;;;;;;53.87;24.07;;;;;;;0.33;72.91;101981.25;5027878;28;20056;-69
2022/03/05 02:06:38;;;;;;;50.20;23.20;;;;;;;0.33;72.80;101980.41;5028045;28;20034;-69
2022/03/05 02:09:04;;;;;;;54.97;24.70;;;;;;;0.32;72.86;101976.94;5027456;28;20037;-69
2022/03/05 02:11:29;;;;;;;51.07;23.80;;;;;;;0.30;73.09;101982.25;5027521;28;20100;-69
2022/03/05 02:13:55;;;;;;;53.23;24.33;;;;;;;0.30;73.15;101974.41;5027033;28;20036;-70
2022/03/05 02:16:21;;;;;;;51.23;24.23;;;;;;;0.22;73.25;101963.47;5029518;28;20181;-72
2022/03/05 02:18:49;;;;;;;54.00;24.37;;;;;;;0.26;73.39;101969.41;5029037;28;20139;-70
2022/03/05 02:21:15;;;;;;;54.43;24.53;;;;;;;0.19;73.40;101968.88;5028612;28;20068;-70
2022/03/05 02:23:41;;;;;;;50.90;24.17;;;;;;;0.15;73.63;101967.31;5029159;28;20366;-70
2022/03/05 02:26:07;;;;;;;52.97;24.60;;;;;;;0.12;73.73;101967.47;5029393;28;20469;-69
2022/03/05 02:28:34;;;;;;;51.10;24.27;;;;;;;0.08;73.59;101967.72;5028066;28;20559;-69
2022/03/05 02:30:59;;;;;;;53.83;25.30;;;;;;;0.04;73.97;101969.63;5028409;28;20033;-69
2022/03/05 02:33:26;;;;;;;51.33;22.63;;;;;;;0.03;74.06;101970.56;5028832;28;20029;-69
2022/03/05 02:35:51;;;;;;;54.90;25.63;;;;;;;0.01;74.46;101963.72;5028627;28;20068;-69
2022/03/05 02:38:19;;;;;;;54.50;24.47;;;;;;;0.06;74.26;101972.16;5029074;28;20049;-69
2022/03/05 02:40:45;;;;;;;53.07;24.27;;;;;;;0.04;74.19;101964.41;5027824;28;20025;-70
2022/03/05 02:43:11;;;;;;;49.97;23.27;;;;;;;0.09;74.34;101966.78;5027890;28;20025;-70
2022/03/05 02:45:37;;;;;;;51.50;23.63;;;;;;;0.08;74.15;101965.94;5027830;28;20104;-69
2022/03/05 02:48:05;;;;;;;50.80;23.87;;;;;;;0.08;74.21;101970.31;5027304;28;20027;-69
2022/03/05 02:50:31;;;;;;;47.27;21.97;;;;;;;0.11;74.07;101975.41;5026413;28;20021;-69
2022/03/05 02:52:57;;;;;;;48.30;22.73;;;;;;;0.06;73.97;101962.56;5026688;28;20070;-69
2022/03/05 02:55:22;;;;;;;48.20;23.80;;;;;;;0.10;74.01;101963.25;5026609;28;20033;-69
2022/03/05 02:57:48;;;;;;;52.57;23.47;;;;;;;0.12;74.09;101961.41;5026843;28;20029;-69
2022/03/05 03:00:15;;;;;;;51.63;23.60;;;;;;;0.10;74.09;101964.09;5026476;28;20068;-69
2022/03/05 03:02:40;;;;;;;53.10;24.20;;;;;;;0.07;74.32;101953.81;5025282;28;20489;-69
2022/03/05 03:05:06;;;;;;;52.90;23.87;;;;;;;0.08;73.95;101959.88;5027867;28;20090;-69
2022/03/05 03:07:31;;;;;;;53.03;24.20;;;;;;;0.06;74.07;101961.72;5027082;28;20103;-69
2022/03/05 03:09:58;;;;;;;54.57;24.43;;;;;;;0.06;74.03;101964.34;5026173;28;20109;-69
2022/03/05 03:12:24;;;;;;;47.90;22.90;;;;;;;0.02;74.04;101958.41;5027851;28;20111;-69
2022/03/05 03:14:49;;;;;;;57.93;24.03;;;;;;;0.01;74.05;101956.72;5027321;28;20112;-69
2022/03/05 03:17:14;;;;;;;52.50;23.37;;;;;;;0.02;74.11;101954.97;5027260;28;20033;-69
2022/03/05 03:19:40;;;;;;;54.30;24.67;;;;;;;-0.06;74.00;101952.72;5025934;28;20393;-69
2022/03/05 03:22:05;;;;;;;52.90;23.97;;;;;;;-0.12;73.95;101953.00;5026505;28;20067;-69
2022/03/05 03:24:30;;;;;;;49.83;24.27;;;;;;;-0.17;74.02;101957.63;5026694;28;20030;-69
2022/03/05 03:26:55;;;;;;;49.70;22.17;;;;;;;-0.27;73.88;101940.72;5026561;28;20484;-69
2022/03/05 03:29:21;;;;;;;52.33;23.53;;;;;;;-0.25;74.08;101951.94;5025541;28;20032;-69
2022/03/05 03:31:46;;;;;;;50.27;23.13;;;;;;;-0.27;74.10;101940.72;5026949;28;20437;-69
2022/03/05 03:34:11;;;;;;;48.47;22.57;;;;;;;-0.29;73.92;101947.75;5026658;28;20034;-69
2022/03/05 03:36:37;;;;;;;49.77;22.50;;;;;;;-0.31;74.14;101953.03;5031125;28;20068;-69
2022/03/05 03:39:03;;;;;;;48.40;22.03;;;;;;;-0.33;74.19;101954.88;5027509;28;20013;-69
2022/03/05 03:41:29;;;;;;;50.37;22.87;;;;;;;-0.34;74.12;101958.41;5028623;28;20033;-69
2022/03/05 03:43:54;;;;;;;46.80;22.30;;;;;;;-0.36;74.29;101955.03;5026251;28;20026;-69
2022/03/05 03:46:19;;;;;;;43.97;21.30;;;;;;;-0.39;74.23;101947.34;5030617;28;20731;-69
2022/03/05 03:48:44;;;;;;;50.00;22.77;;;;;;;-0.42;74.44;101960.53;5028905;28;20030;-69
2022/03/05 03:51:10;;;;;;;49.17;22.07;;;;;;;-0.45;74.36;101961.53;5029832;28;20021;-69
2022/03/05 03:53:35;;;;;;;48.70;22.80;;;;;;;-0.49;73.92;101954.78;5030136;28;20025;-69
2022/03/05 03:56:00;;;;;;;46.47;22.17;;;;;;;-0.50;74.55;101958.31;5031060;28;20112;-69
2022/03/05 03:58:26;;;;;;;51.17;23.00;;;;;;;-0.53;74.34;101957.59;5029913;28;20076;-69
2022/03/05 04:00:51;;;;;;;52.80;23.17;;;;;;;-0.56;74.75;101956.00;5029081;28;20138;-68
2022/03/05 04:03:16;;;;;;;52.27;23.57;;;;;;;-0.67;74.82;101940.81;5030485;28;20037;-69
2022/03/05 04:05:41;;;;;;;53.00;22.90;;;;;;;-0.61;74.94;101957.94;5030455;28;20033;-69
2022/03/05 04:10:50;;;;;;;49.07;22.77;;;;;;;-0.64;75.12;101947.66;5030057;28;20492;-69
2022/03/05 04:13:16;;;;;;;54.40;23.50;;;;;;;-0.63;75.01;101950.19;5029438;28;20532;-69
2022/03/05 04:15:41;;;;;;;52.53;23.10;;;;;;;-0.70;75.22;101937.50;5030470;28;20025;-70
2022/03/05 04:18:07;;;;;;;50.70;23.60;;;;;;;-0.66;75.19;101958.16;5028902;28;20404;-68
2022/03/05 04:20:33;;;;;;;52.97;24.73;;;;;;;-0.72;75.41;101963.66;5029337;28;20029;-69
2022/03/05 04:22:59;;;;;;;52.23;23.53;;;;;;;-0.73;75.28;101961.97;5030217;28;20315;-70
2022/03/05 04:25:27;;;;;;;50.23;23.60;;;;;;;-0.74;75.24;101965.50;5030142;28;20192;-69
2022/03/05 04:27:52;;;;;;;47.90;22.93;;;;;;;-0.77;75.24;101973.47;5029945;28;20120;-68
2022/03/05 04:30:18;;;;;;;49.03;23.17;;;;;;;-0.87;75.32;101964.34;5028584;28;20120;-69
2022/03/05 04:32:43;;;;;;;51.17;22.80;;;;;;;-0.86;75.12;101970.44;5029648;28;20033;-69
2022/03/05 04:35:09;;;;;;;50.60;24.23;;;;;;;-0.88;75.43;101969.63;5029579;28;20025;-69
2022/03/05 04:37:35;;;;;;;52.27;22.80;;;;;;;-0.91;75.53;101964.56;5029625;28;20448;-69
2022/03/05 04:40:00;;;;;;;58.83;23.83;;;;;;;-1.06;75.57;101953.09;5027934;28;20493;-69
2022/03/05 04:42:25;;;;;;;49.00;22.87;;;;;;;-0.97;75.55;101976.97;5030092;28;20031;-69
2022/03/05 04:44:50;;;;;;;54.80;23.93;;;;;;;-0.96;75.62;101986.47;5029455;28;20053;-70
2022/03/05 04:47:16;;;;;;;54.77;23.27;;;;;;;-1.00;75.77;101979.72;5028804;28;20128;-69
2022/03/05 04:49:41;;;;;;;58.30;24.10;;;;;;;-1.00;75.79;101990.16;5028692;28;20033;-69
2022/03/05 04:52:06;;;;;;;54.30;23.27;;;;;;;-1.04;75.68;101987.75;5029111;28;20033;-69
2022/03/05 04:54:33;;;;;;;56.27;23.97;;;;;;;-1.07;75.87;101990.50;5029281;28;20033;-69
2022/03/05 04:56:58;;;;;;;54.60;24.03;;;;;;;-1.13;76.08;101981.19;5029936;28;20409;-69
2022/03/05 04:59:23;;;;;;;54.50;23.27;;;;;;;-1.11;76.05;101975.91;5028365;28;20037;-70
2022/03/05 05:01:49;;;;;;;56.60;24.50;;;;;;;-1.07;76.13;101983.50;5029467;28;20029;-69
2022/03/05 05:04:14;;;;;;;58.97;23.90;;;;;;;-1.05;76.14;101979.06;5028555;28;20029;-68
2022/03/05 05:06:39;;;;;;;56.47;25.07;;;;;;;-1.04;76.19;101982.53;5029322;28;20026;-70
2022/03/05 05:09:05;;;;;;;57.37;23.80;;;;;;;-1.05;76.20;101981.69;5028028;28;20099;-69
2022/03/05 05:11:30;;;;;;;55.23;24.50;;;;;;;-1.06;76.00;101989.56;5029358;28;20029;-69
2022/03/05 05:13:56;;;;;;;53.47;23.63;;;;;;;-1.04;76.14;101985.13;5028392;28;20838;-69
2022/03/05 05:16:21;;;;;;;59.63;25.27;;;;;;;-1.06;76.07;101982.59;5029551;28;20036;-69
2022/03/05 05:21:31;;;;;;;54.40;23.60;;;;;;;-1.08;76.22;101989.66;5028629;28;20086;-69
2022/03/05 05:23:56;;;;;;;57.40;24.67;;;;;;;-1.09;76.22;101987.09;5028289;28;20030;-69
2022/03/05 05:26:21;;;;;;;56.20;24.83;;;;;;;-1.14;75.84;101976.88;5029473;28;20492;-69
2022/03/05 05:28:47;;;;;;;59.93;25.37;;;;;;;-1.12;76.36;101993.31;5027755;28;20114;-68
2022/03/05 05:31:12;;;;;;;59.00;24.80;;;;;;;-1.11;76.35;101997.59;5029242;28;20033;-69
2022/03/05 05:33:39;;;;;;;58.17;24.40;;;;;;;-1.12;76.50;102000.28;5028590;28;20021;-69
2022/03/05 05:36:05;;;;;;;59.07;25.40;;;;;;;-1.15;76.61;101997.81;5028756;28;20041;-69
2022/03/05 05:38:31;;;;;;;62.03;25.57;;;;;;;-1.17;76.61;102012.63;5028252;28;20043;-69
2022/03/05 05:40:56;;;;;;;54.07;24.67;;;;;;;-1.20;76.53;102013.63;5028556;28;20033;-69
2022/03/05 05:43:21;;;;;;;61.10;25.87;;;;;;;-1.27;76.56;102010.44;5028355;28;20412;-69
2022/03/05 05:45:47;;;;;;;57.10;25.27;;;;;;;-1.25;76.69;102008.59;5028608;28;20424;-69
2022/03/05 05:48:12;;;;;;;57.97;25.53;;;;;;;-1.27;76.74;102002.63;5026142;28;20059;-69
2022/03/05 05:50:37;;;;;;;59.50;24.50;;;;;;;-1.27;76.80;102009.59;5026097;28;20465;-69
2022/03/05 05:53:03;;;;;;;58.57;25.43;;;;;;;-1.29;76.99;102014.03;5027300;28;20172;-69
2022/03/05 05:55:28;;;;;;;59.33;25.13;;;;;;;-1.29;77.03;102021.84;5029020;28;20028;-70
2022/03/05 05:57:53;;;;;;;60.83;26.27;;;;;;;-1.33;77.23;102017.69;5027987;28;20111;-69
2022/03/05 06:00:19;;;;;;;60.17;25.50;;;;;;;-1.32;77.13;102019.38;5028004;28;20389;-69
2022/03/05 06:02:44;;;;;;;61.47;25.37;;;;;;;-1.35;77.29;102012.53;5027311;28;20029;-69
2022/03/05 06:05:09;;;;;;;65.27;27.03;;;;;;;-1.38;77.29;102011.81;5028298;28;20025;-69
2022/03/05 06:07:34;;;;;;;63.33;27.23;;;;;;;-1.35;77.38;102015.13;5030965;28;20055;-69
2022/03/05 06:10:00;;;;;;;58.50;25.50;;;;;;;-1.43;77.16;102003.34;5028420;28;20044;-69
2022/03/05 06:12:25;;;;;;;60.07;26.47;;;;;;;-1.41;77.54;102014.56;5028537;28;20049;-69
2022/03/05 06:14:50;;;;;;;69.03;27.20;;;;;;;-1.42;77.70;102007.66;5029462;28;20072;-70
2022/03/05 06:17:16;;;;;;;60.27;25.40;;;;;;;-1.42;77.64;102011.09;5029363;28;20068;-69
2022/03/05 06:19:42;;;;;;;69.37;26.87;;;;;;;-1.44;77.73;102014.69;5026660;28;20593;-69
2022/03/05 06:22:08;;;;;;;68.77;26.77;;;;;;;-1.48;77.89;102019.16;5029099;28;20035;-70
2022/03/05 06:24:33;;;;;;;65.23;27.07;;;;;;;-1.49;78.08;102011.41;5028966;28;20100;-69
2022/03/05 06:26:58;;;;;;;63.83;27.07;;;;;;;-1.50;78.20;102012.31;5029004;28;20096;-69
2022/03/05 06:29:24;;;;;;;72.33;28.17;;;;;;;-1.48;78.28;102013.09;5027738;28;20040;-69
2022/03/05 06:31:49;;;;;;;66.33;28.10;;;;;;;-1.49;78.55;102011.41;5028814;28;20040;-68
2022/03/05 06:34:14;;;;;;;66.60;27.30;;;;;;;-1.47;78.47;102015.63;5028596;28;20033;-70
2022/03/05 06:36:39;;;;;;;69.67;27.97;;;;;;;-1.46;78.50;102012.13;5027942;28;20405;-69
2022/03/05 06:39:05;;;;;;;68.47;27.27;;;;;;;-1.42;78.68;102018.06;5026735;28;20037;-69
2022/03/05 06:41:30;;;;;;;64.87;25.90;;;;;;;-1.40;78.72;102021.47;5028056;28;20025;-69
2022/03/05 06:43:55;;;;;;;70.80;27.27;;;;;;;-1.35;78.82;102022.09;5026856;28;20078;-69
2022/03/05 06:46:20;;;;;;;72.10;27.37;;;;;;;-1.30;78.98;102025.34;5027772;28;20037;-69
2022/03/05 06:48:46;;;;;;;69.13;27.23;;;;;;;-1.28;79.14;102013.97;5026216;28;20067;-69
2022/03/05 06:51:12;;;;;;;71.00;27.63;;;;;;;-1.19;78.91;102019.69;5025973;28;20713;-70
2022/03/05 06:53:37;;;;;;;70.07;28.27;;;;;;;-1.11;79.19;102023.66;5027390;28;20041;-69
2022/03/05 06:56:03;;;;;;;72.63;28.80;;;;;;;-1.14;79.10;101995.13;5027278;28;20525;-69
2022/03/05 06:58:28;;;;;;;68.03;27.67;;;;;;;-0.95;79.25;102019.47;5026562;28;20397;-69
2022/03/05 07:00:53;;;;;;;70.00;28.03;;;;;;;-0.83;79.07;102038.09;5026320;28;20033;-69
2022/03/05 07:03:19;;;;;;;61.97;26.13;;;;;;;-0.78;78.98;102031.75;5027707;28;20075;-69
2022/03/05 07:05:44;;;;;;;68.97;27.87;;;;;;;-0.72;78.88;102035.84;5027295;28;20029;-68
2022/03/05 07:08:09;;;;;;;69.63;27.37;;;;;;;-0.72;78.68;102038.47;5028251;28;20025;-69
2022/03/05 07:10:34;;;;;;;64.30;26.47;;;;;;;-0.69;78.75;102035.72;5026048;28;20723;-69
2022/03/05 07:13:00;;;;;;;69.03;27.97;;;;;;;-0.61;78.54;102044.03;5029060;28;20040;-69
2022/03/05 07:15:26;;;;;;;67.73;27.43;;;;;;;-0.55;78.55;102041.16;5026829;28;20544;-69
2022/03/05 07:17:52;;;;;;;69.07;28.87;;;;;;;-0.50;78.40;102047.00;5027350;28;20044;-69
2022/03/05 07:20:18;;;;;;;70.47;27.43;;;;;;;-0.44;78.41;102049.34;5025785;28;20026;-69
2022/03/05 07:22:43;;;;;;;73.80;29.57;;;;;;;-0.40;78.54;102053.50;5025333;28;20025;-69
2022/03/05 07:25:10;;;;;;;75.70;30.53;;;;;;;-0.33;78.50;102049.69;5026326;28;20393;-70
2022/03/05 07:27:35;;;;;;;71.57;29.17;;;;;;;-0.28;78.28;102049.50;5027122;28;20041;-69
2022/03/05 07:30:00;;;;;;;70.97;28.87;;;;;;;-0.17;78.31;102055.06;5025061;28;20037;-69
2022/03/05 07:32:25;;;;;;;75.10;28.53;;;;;;;-0.11;78.28;102049.53;5026684;28;20033;-69
2022/03/05 07:34:51;;;;;;;66.50;27.53;;;;;;;-0.03;78.19;102046.56;5026878;28;20107;-69
2022/03/05 07:37:16;;;;;;;70.90;28.67;;;;;;;0.08;78.07;102048.66;5027222;28;20044;-69
2022/03/05 07:39:41;;;;;;;67.47;29.27;;;;;;;0.13;77.88;102044.06;5027123;28;20029;-69
2022/03/05 07:42:07;;;;;;;70.10;29.37;;;;;;;0.22;77.90;102039.22;5028520;28;20099;-69
2022/03/05 07:44:32;;;;;;;73.20;28.53;;;;;;;0.36;77.72;102046.41;5032971;28;20039;-69
2022/03/05 07:46:58;;;;;;;71.27;29.03;;;;;;;0.50;77.52;102049.19;5027730;28;20044;-70
2022/03/05 07:49:24;;;;;;;72.23;29.90;;;;;;;0.59;77.34;102042.66;5026372;28;20029;-69
2022/03/05 07:51:49;;;;;;;74.47;29.77;;;;;;;0.66;77.00;102040.59;5027692;28;20079;-69
2022/03/05 07:54:14;;;;;;;69.13;27.27;;;;;;;0.66;76.61;102038.81;5028173;28;20509;-69
2022/03/05 07:56:40;;;;;;;74.30;29.83;;;;;;;0.75;76.65;102040.09;5026508;28;20489;-70
2022/03/05 07:59:05;;;;;;;74.37;29.50;;;;;;;0.85;76.68;102042.16;5025785;28;20026;-69
2022/03/05 08:01:30;;;;;;;72.73;29.57;;;;;;;0.92;76.64;102055.78;5027223;28;20038;-69
2022/03/05 08:03:57;;;;;;;66.73;27.03;;;;;;;0.97;76.57;102052.94;5027953;28;20442;-69
2022/03/05 08:06:22;;;;;;;68.63;29.47;;;;;;;1.05;76.23;102058.63;5027709;28;20268;-69
2022/03/05 08:08:47;;;;;;;70.50;29.00;;;;;;;1.13;76.13;102059.91;5028458;28;20025;-69
2022/03/05 08:11:12;;;;;;;70.07;28.13;;;;;;;1.20;75.78;102070.91;5027963;28;20047;-69
2022/03/05 08:13:38;;;;;;;71.70;29.00;;;;;;;1.23;75.79;102066.38;5027951;28;20029;-69
2022/03/05 08:16:03;;;;;;;69.73;28.03;;;;;;;1.26;75.56;102067.97;5027718;28;20184;-69
2022/03/05 08:18:28;;;;;;;74.70;31.43;;;;;;;1.35;75.42;102070.09;5027971;28;20169;-69
2022/03/05 08:20:54;;;;;;;81.77;30.70;;;;;;;1.44;75.27;102074.81;5028607;28;20478;-69
2022/03/05 08:23:19;;;;;;;74.50;30.77;;;;;;;1.55;74.99;102076.91;5027843;28;20030;-69
2022/03/05 08:25:44;;;;;;;74.77;31.13;;;;;;;1.61;74.84;102083.56;5028031;28;20032;-69
2022/03/05 08:28:10;;;;;;;74.53;30.63;;;;;;;1.63;74.60;102081.72;5031179;28;20044;-69
2022/03/05 08:30:35;;;;;;;79.07;30.87;;;;;;;1.64;74.11;102086.88;5029083;28;20032;-69
2022/03/05 08:33:00;;;;;;;72.43;31.97;;;;;;;1.74;74.27;102080.22;5030250;28;20300;-68
2022/03/05 08:35:26;;;;;;;71.53;30.30;;;;;;;1.82;74.08;102085.88;5031076;28;20030;-69
2022/03/05 08:37:52;;;;;;;76.53;30.47;;;;;;;1.90;73.91;102092.47;5030535;28;20040;-69
2022/03/05 08:40:19;;;;;;;69.33;30.13;;;;;;;1.93;73.81;102085.28;5029118;28;20033;-69
2022/03/05 08:42:46;;;;;;;69.97;30.33;;;;;;;2.02;73.69;102089.16;5029258;28;20026;-69
2022/03/05 08:45:11;;;;;;;71.70;30.40;;;;;;;2.13;73.76;102092.91;5031101;28;20029;-70
2022/03/05 08:47:37;;;;;;;73.60;30.67;;;;;;;2.17;73.09;102083.94;5027696;28;20546;-69
2022/03/05 08:50:04;;;;;;;73.20;29.27;;;;;;;2.27;73.29;102088.66;5028478;28;20025;-69
2022/03/05 08:52:35;;;;;;;69.60;29.00;;;;;;;2.30;72.98;102088.47;5029025;28;20033;-69
2022/03/05 08:55:02;;;;;;;71.90;30.27;;;;;;;2.45;72.56;102087.63;5030561;28;20036;-70
2022/03/05 08:57:27;;;;;;;65.20;28.87;;;;;;;2.43;72.46;102085.09;5030880;28;20057;-69
2022/03/05 08:59:52;;;;;;;67.90;28.80;;;;;;;2.55;72.05;102078.28;5028967;28;20284;-69
2022/03/05 09:02:17;;;;;;;69.90;28.20;;;;;;;2.63;71.80;102081.31;5030111;28;20401;-69
2022/03/05 09:04:42;;;;;;;68.73;29.43;;;;;;;2.80;71.68;102083.78;5030357;28;20041;-69
2022/03/05 09:07:08;;;;;;;68.60;28.97;;;;;;;2.85;71.24;102064.31;5030216;28;20041;-69
2022/03/05 09:09:33;;;;;;;66.97;29.17;;;;;;;3.08;71.28;102082.16;5027043;28;20754;-69
2022/03/05 09:11:58;;;;;;;67.60;28.80;;;;;;;3.20;70.90;102072.72;5032055;28;20060;-69
2022/03/05 09:14:23;;;;;;;67.37;29.53;;;;;;;3.33;70.78;102077.13;5029915;28;20033;-69
2022/03/05 09:16:49;;;;;;;64.37;29.53;;;;;;;3.37;70.34;102083.03;5030399;28;20108;-69
2022/03/05 09:19:14;;;;;;;67.03;30.40;;;;;;;3.46;70.12;102076.34;5029055;28;20103;-69
2022/03/05 09:21:39;;;;;;;67.43;28.50;;;;;;;3.59;69.94;102075.53;5030651;28;20087;-69
2022/03/05 09:24:05;;;;;;;65.33;27.10;;;;;;;3.52;69.33;102068.97;5030332;28;20404;-69
2022/03/05 09:26:32;;;;;;;68.17;28.60;;;;;;;3.62;68.94;102074.50;5030535;28;20048;-69
2022/03/05 09:28:57;;;;;;;62.53;28.93;;;;;;;3.62;68.57;102064.81;5029136;28;20082;-70
2022/03/05 09:31:22;;;;;;;65.77;28.60;;;;;;;3.62;68.36;102069.22;5023498;28;20456;-69
2022/03/05 09:33:48;;;;;;;67.53;29.20;;;;;;;3.60;68.09;102068.50;5029903;28;20041;-69
2022/03/05 09:36:13;;;;;;;66.27;29.07;;;;;;;3.76;68.05;102060.47;5030308;28;20108;-69
2022/03/05 09:38:39;;;;;;;64.33;27.67;;;;;;;3.91;67.94;102062.16;5029018;28;20026;-69
2022/03/05 09:41:06;;;;;;;66.67;28.30;;;;;;;4.07;67.83;102062.88;5030054;28;20299;-69
2022/03/05 09:43:31;;;;;;;62.73;28.03;;;;;;;3.99;67.17;102065.13;5030338;28;20045;-69
2022/03/05 09:45:58;;;;;;;62.57;27.87;;;;;;;4.13;67.30;102069.50;5029805;28;20405;-69
2022/03/05 09:48:25;;;;;;;62.97;27.53;;;;;;;4.21;66.81;102067.22;5029620;28;20044;-69
2022/03/05 09:50:50;;;;;;;61.57;27.10;;;;;;;4.18;66.41;102070.06;5028964;28;20036;-69
2022/03/05 09:53:16;;;;;;;56.73;26.97;;;;;;;4.22;66.14;102061.03;5024725;28;20029;-70
2022/03/05 09:55:41;;;;;;;58.33;28.30;;;;;;;4.43;65.71;102067.53;5030090;28;20056;-69
2022/03/05 09:58:07;;;;;;;61.97;27.83;;;;;;;4.58;65.80;102063.03;5029745;28;20126;-69
2022/03/05 10:00:32;;;;;;;58.67;26.90;;;;;;;4.62;65.33;102067.97;5029718;28;20081;-69
2022/03/05 10:02:59;;;;;;;57.90;26.93;;;;;;;4.68;65.13;102063.28;5029377;28;20570;-69
2022/03/05 10:05:26;;;;;;;60.53;27.97;;;;;;;4.94;64.78;102070.25;5030082;28;20458;-69
2022/03/05 10:08:11;;;;;;;60.27;27.00;;;;;;;5.03;64.46;102074.06;5029117;28;20057;-69
2022/03/05 10:10:53;;;;;;;57.83;27.33;;;;;;;5.19;64.00;102072.88;5027335;28;20025;-69
2022/03/05 10:13:32;;;;;;;56.33;27.53;;;;;;;5.39;63.73;102071.50;5021283;28;20041;-69
2022/03/05 10:15:59;;;;;;;62.37;27.67;;;;;;;5.54;63.27;102075.72;5029463;28;20100;-69
2022/03/05 10:18:32;;;;;;;58.13;28.03;;;;;;;5.51;62.60;102070.66;5029593;28;20155;-69
2022/03/05 10:21:00;;;;;;;57.93;28.43;;;;;;;5.61;62.50;102070.84;5028214;28;20119;-68
2022/03/05 10:23:25;;;;;;;59.20;26.90;;;;;;;5.59;62.14;102067.50;5028823;28;20508;-69
2022/03/05 10:25:55;;;;;;;55.13;27.00;;;;;;;5.69;62.15;102068.50;5029189;28;20152;-69
2022/03/05 10:28:23;;;;;;;59.23;28.70;;;;;;;5.69;61.50;102063.25;5029089;28;20035;-69
2022/03/05 10:30:54;;;;;;;56.93;27.40;;;;;;;5.65;61.16;102063.56;5028515;28;20037;-69
2022/03/05 10:33:42;;;;;;;56.47;27.80;;;;;;;5.69;61.02;102063.25;5029126;28;20021;-68
2022/03/05 10:36:18;;;;;;;59.10;28.33;;;;;;;5.88;61.61;102062.78;5029324;28;20033;-69
2022/03/05 10:38:57;;;;;;;56.80;28.93;;;;;;;6.04;61.72;102060.75;5026052;28;20547;-69
2022/03/05 10:41:34;;;;;;;59.93;27.47;;;;;;;6.03;61.60;102069.59;5028598;28;20113;-69
2022/03/05 10:44:05;;;;;;;63.53;30.47;;;;;;;6.19;61.84;102064.91;5028815;28;20026;-68
2022/03/05 10:46:37;;;;;;;67.73;30.90;;;;;;;6.27;61.88;102056.44;5027700;28;20539;-69
2022/03/05 10:49:18;;;;;;;62.17;28.87;;;;;;;6.36;61.75;102063.69;5027699;28;20064;-70
2022/03/05 10:52:00;;;;;;;59.27;27.97;;;;;;;6.43;61.86;102064.06;5028464;28;20025;-69
2022/03/05 10:54:42;;;;;;;56.83;27.90;;;;;;;6.47;61.20;102066.38;5022616;28;20034;-69
2022/03/05 10:57:10;;;;;;;59.43;27.77;;;;;;;6.48;60.93;102073.31;5023719;28;20025;-68
2022/03/05 10:59:39;;;;;;;62.77;29.47;;;;;;;6.48;60.48;102068.03;5027507;28;20112;-69
2022/03/05 11:02:06;;;;;;;57.13;27.58;;;;;;;6.35;59.97;102048.78;5032041;28;20025;-69
2022/03/05 11:04:35;;;;;;;56.27;27.80;;;;;;;6.35;59.88;102061.97;5029100;28;20058;-68
2022/03/05 11:07:01;;;;;;;58.35;27.02;;;;;;;6.36;60.01;102068.97;5021307;28;20485;-69
2022/03/05 11:09:29;;;;;;;63.27;29.17;;;;;;;6.49;60.12;102079.44;5023105;28;20064;-69
2022/03/05 11:11:54;;;;;;;54.50;27.60;;;;;;;6.53;59.62;102071.19;5024834;28;20484;-68
2022/03/05 11:14:20;;;;;;;57.80;28.40;;;;;;;6.65;59.59;102074.72;5026225;28;20506;-70